createdAt,value
2023-03-07T00:00:40.217Z,964.92
2023-03-07T00:01:40.136Z,964.93
2023-03-07T00:02:40.137Z,964.89
2023-03-07T00:03:39.985Z,964.88
2023-03-07T00:04:39.876Z,964.93
2023-03-07T00:05:39.797Z,964.92
2023-03-07T00:06:39.706Z,964.88
2023-03-07T00:07:39.633Z,964.90
2023-03-07T00:08:39.547Z,964.83
2023-03-07T00:09:39.449Z,964.83
2023-03-07T00:10:39.370Z,964.87
2023-03-07T00:11:39.285Z,964.90
2023-03-07T00:12:39.190Z,964.85
2023-03-07T00:13:39.110Z,964.85
2023-03-07T00:14:39.023Z,964.88
2023-03-07T00:15:38.965Z,964.91
2023-03-07T00:16:38.858Z,964.86
2023-03-07T00:17:38.773Z,964.82
2023-03-07T00:18:38.687Z,964.80
2023-03-07T00:19:38.601Z,964.83
2023-03-07T00:20:38.522Z,964.82
2023-03-07T00:21:38.454Z,964.80
2023-03-07T00:22:38.342Z,964.82
2023-03-07T00:23:38.264Z,964.83
2023-03-07T00:24:38.174Z,964.81
2023-03-07T00:25:38.095Z,964.77
2023-03-07T00:26:38.007Z,964.76
2023-03-07T00:27:37.922Z,964.74
2023-03-07T00:28:37.829Z,964.77
2023-03-07T00:29:37.745Z,964.69
2023-03-07T00:30:37.662Z,964.67
2023-03-07T00:31:37.640Z,964.66
2023-03-07T00:32:37.531Z,964.61
2023-03-07T00:33:37.403Z,964.62
2023-03-07T00:34:37.324Z,964.59
2023-03-07T00:35:37.234Z,964.60
2023-03-07T00:36:37.146Z,964.57
2023-03-07T00:37:37.061Z,964.60
2023-03-07T00:38:36.978Z,964.57
2023-03-07T00:39:36.891Z,964.54
2023-03-07T00:40:36.812Z,964.55
2023-03-07T00:41:36.729Z,964.54
2023-03-07T00:42:36.655Z,964.54
2023-03-07T00:43:36.558Z,964.53
2023-03-07T00:44:36.480Z,964.51
2023-03-07T00:45:36.399Z,964.51
2023-03-07T00:46:36.293Z,964.51
2023-03-07T00:47:36.211Z,964.50
2023-03-07T00:48:36.138Z,964.50
2023-03-07T00:49:36.040Z,964.48
2023-03-07T00:50:35.957Z,964.49
2023-03-07T00:51:35.871Z,964.47
2023-03-07T00:52:35.786Z,964.46
2023-03-07T00:53:35.699Z,964.43
2023-03-07T00:54:35.610Z,964.45
2023-03-07T00:55:35.530Z,964.44
2023-03-07T00:56:35.437Z,964.42
2023-03-07T00:57:35.358Z,964.40
2023-03-07T00:58:35.273Z,964.39
2023-03-07T00:59:35.190Z,964.39
2023-03-07T01:00:35.126Z,964.43
2023-03-07T01:01:35.013Z,964.38
2023-03-07T01:02:34.933Z,964.39
2023-03-07T01:03:34.842Z,964.36
2023-03-07T01:04:34.828Z,964.32
2023-03-07T01:05:34.680Z,964.31
2023-03-07T01:06:34.587Z,964.31
2023-03-07T01:07:34.502Z,964.28
2023-03-07T01:08:34.420Z,964.29
2023-03-07T01:09:34.329Z,964.28
2023-03-07T01:10:34.244Z,964.21
2023-03-07T01:11:34.165Z,964.21
2023-03-07T01:12:34.074Z,964.20
2023-03-07T01:13:33.990Z,964.21
2023-03-07T01:14:33.912Z,964.23
2023-03-07T01:15:33.827Z,964.17
2023-03-07T01:16:33.738Z,964.17
2023-03-07T01:17:33.647Z,964.13
2023-03-07T01:18:33.561Z,964.13
2023-03-07T01:19:33.477Z,964.11
2023-03-07T01:20:33.389Z,964.08
2023-03-07T01:21:33.307Z,964.09
2023-03-07T01:22:33.224Z,964.09
2023-03-07T01:23:33.135Z,964.07
2023-03-07T01:24:33.054Z,964.07
2023-03-07T01:25:32.963Z,964.04
2023-03-07T01:26:32.879Z,964.09
2023-03-07T01:27:32.796Z,964.05
2023-03-07T01:28:32.706Z,964.02
2023-03-07T01:29:32.623Z,964.05
2023-03-07T01:30:32.540Z,963.99
2023-03-07T01:31:32.635Z,963.96
2023-03-07T01:32:32.488Z,963.92
2023-03-07T01:33:32.279Z,963.90
2023-03-07T01:34:32.194Z,963.91
2023-03-07T01:35:32.134Z,963.90
2023-03-07T01:36:32.040Z,963.92
2023-03-07T01:37:31.938Z,963.92
2023-03-07T01:38:31.851Z,963.86
2023-03-07T01:39:31.785Z,963.83
2023-03-07T01:40:31.680Z,963.84
2023-03-07T01:41:31.595Z,963.84
2023-03-07T01:42:31.508Z,963.80
2023-03-07T01:43:31.424Z,963.84
2023-03-07T01:44:31.346Z,963.80
2023-03-07T01:45:31.307Z,963.81
2023-03-07T01:46:31.183Z,963.79
2023-03-07T01:47:31.088Z,963.76
2023-03-07T01:48:31.000Z,963.74
2023-03-07T01:49:30.981Z,963.76
2023-03-07T01:50:30.825Z,963.75
2023-03-07T01:51:30.739Z,963.72
2023-03-07T01:52:30.653Z,963.72
2023-03-07T01:53:30.575Z,963.68
2023-03-07T01:54:30.481Z,963.67
2023-03-07T01:55:30.398Z,963.67
2023-03-07T01:56:30.310Z,963.63
2023-03-07T01:57:30.227Z,963.57
2023-03-07T01:58:30.139Z,963.56
2023-03-07T01:59:30.056Z,963.59
2023-03-07T02:00:30.035Z,963.56
2023-03-07T02:01:29.982Z,963.53
2023-03-07T02:02:29.833Z,963.56
2023-03-07T02:03:29.716Z,963.56
2023-03-07T02:04:29.665Z,963.50
2023-03-07T02:05:29.546Z,963.60
2023-03-07T02:06:29.454Z,963.52
2023-03-07T02:07:29.373Z,963.51
2023-03-07T02:08:29.284Z,963.50
2023-03-07T02:09:29.196Z,963.46
2023-03-07T02:10:29.111Z,963.47
2023-03-07T02:11:29.052Z,963.42
2023-03-07T02:12:28.943Z,963.42
2023-03-07T02:13:28.855Z,963.42
2023-03-07T02:14:28.778Z,963.41
2023-03-07T02:15:28.684Z,963.38
2023-03-07T02:16:28.597Z,963.39
2023-03-07T02:17:28.514Z,963.37
2023-03-07T02:18:28.435Z,963.35
2023-03-07T02:19:28.352Z,963.35
2023-03-07T02:20:28.274Z,963.35
2023-03-07T02:21:28.172Z,963.30
2023-03-07T02:22:28.087Z,963.32
2023-03-07T02:23:28.004Z,963.30
2023-03-07T02:24:27.915Z,963.27
2023-03-07T02:25:27.827Z,963.32
2023-03-07T02:26:27.743Z,963.33
2023-03-07T02:27:27.658Z,963.32
2023-03-07T02:28:27.577Z,963.31
2023-03-07T02:29:27.479Z,963.29
2023-03-07T02:30:27.405Z,963.27
2023-03-07T02:31:27.343Z,963.27
2023-03-07T02:32:27.288Z,963.31
2023-03-07T02:33:27.145Z,963.27
2023-03-07T02:34:27.071Z,963.32
2023-03-07T02:35:27.000Z,963.28
2023-03-07T02:36:26.893Z,963.28
2023-03-07T02:37:26.802Z,963.27
2023-03-07T02:38:26.718Z,963.27
2023-03-07T02:39:26.631Z,963.25
2023-03-07T02:40:26.552Z,963.35
2023-03-07T02:41:26.459Z,963.30
2023-03-07T02:42:26.376Z,963.28
2023-03-07T02:43:26.292Z,963.31
2023-03-07T02:44:26.213Z,963.29
2023-03-07T02:45:26.117Z,963.31
2023-03-07T02:46:26.056Z,963.34
2023-03-07T02:47:25.947Z,963.30
2023-03-07T02:48:25.861Z,963.32
2023-03-07T02:49:25.773Z,963.30
2023-03-07T02:50:25.699Z,963.33
2023-03-07T02:51:25.607Z,963.35
2023-03-07T02:52:25.519Z,963.34
2023-03-07T02:53:25.429Z,963.30
2023-03-07T02:54:25.359Z,963.34
2023-03-07T02:55:25.268Z,963.31
2023-03-07T02:56:25.172Z,963.35
2023-03-07T02:57:25.092Z,963.32
2023-03-07T02:58:25.003Z,963.31
2023-03-07T02:59:24.915Z,963.32
2023-03-07T03:00:24.831Z,963.31
2023-03-07T03:01:24.786Z,963.25
2023-03-07T03:02:24.661Z,963.29
2023-03-07T03:03:24.576Z,963.31
2023-03-07T03:04:24.572Z,963.28
2023-03-07T03:05:24.417Z,963.27
2023-03-07T03:06:24.343Z,963.29
2023-03-07T03:07:24.238Z,963.25
2023-03-07T03:08:24.157Z,963.29
2023-03-07T03:09:24.063Z,963.23
2023-03-07T03:10:23.979Z,963.25
2023-03-07T03:11:23.902Z,963.26
2023-03-07T03:12:23.814Z,963.23
2023-03-07T03:13:23.728Z,963.24
2023-03-07T03:14:23.675Z,963.18
2023-03-07T03:15:23.554Z,963.20
2023-03-07T03:16:23.574Z,963.20
2023-03-07T03:17:23.379Z,963.20
2023-03-07T03:18:23.307Z,963.20
2023-03-07T03:19:23.217Z,963.18
2023-03-07T03:20:23.126Z,963.20
2023-03-07T03:21:23.052Z,963.20
2023-03-07T03:22:22.983Z,963.17
2023-03-07T03:23:22.866Z,963.16
2023-03-07T03:24:22.781Z,963.17
2023-03-07T03:25:22.698Z,963.22
2023-03-07T03:26:22.612Z,963.14
2023-03-07T03:27:22.531Z,963.12
2023-03-07T03:28:22.443Z,963.17
2023-03-07T03:29:22.355Z,963.13
2023-03-07T03:30:22.272Z,963.13
2023-03-07T03:31:22.226Z,963.20
2023-03-07T03:32:22.150Z,963.17
2023-03-07T03:33:22.017Z,963.20
2023-03-07T03:34:21.932Z,963.22
2023-03-07T03:35:21.839Z,963.19
2023-03-07T03:36:21.754Z,963.16
2023-03-07T03:37:21.666Z,963.20
2023-03-07T03:38:21.590Z,963.17
2023-03-07T03:39:21.508Z,963.14
2023-03-07T03:40:21.415Z,963.15
2023-03-07T03:41:21.327Z,963.15
2023-03-07T03:42:21.248Z,963.06
2023-03-07T03:43:21.154Z,963.08
2023-03-07T03:44:21.077Z,963.05
2023-03-07T03:45:20.986Z,963.08
2023-03-07T03:46:20.923Z,963.06
2023-03-07T03:47:20.812Z,963.03
2023-03-07T03:48:20.723Z,963.03
2023-03-07T03:49:20.640Z,963.05
2023-03-07T03:50:20.551Z,962.99
2023-03-07T03:51:20.474Z,962.99
2023-03-07T03:52:20.388Z,963.03
2023-03-07T03:53:20.300Z,962.99
2023-03-07T03:54:20.226Z,962.99
2023-03-07T03:55:20.128Z,963.00
2023-03-07T03:56:20.039Z,963.00
2023-03-07T03:57:19.952Z,962.98
2023-03-07T03:58:19.871Z,962.95
2023-03-07T03:59:19.782Z,962.96
2023-03-07T04:00:21.103Z,962.92
2023-03-07T04:01:19.614Z,962.89
2023-03-07T04:02:19.607Z,962.89
2023-03-07T04:03:19.444Z,962.91
2023-03-07T04:04:19.352Z,962.89
2023-03-07T04:05:19.281Z,962.87
2023-03-07T04:06:19.183Z,962.89
2023-03-07T04:07:19.097Z,962.84
2023-03-07T04:08:19.013Z,962.83
2023-03-07T04:09:18.924Z,962.82
2023-03-07T04:10:18.846Z,962.84
2023-03-07T04:11:18.752Z,962.82
2023-03-07T04:12:18.665Z,962.80
2023-03-07T04:13:18.582Z,962.79
2023-03-07T04:14:18.502Z,962.85
2023-03-07T04:15:18.416Z,962.85
2023-03-07T04:16:18.396Z,962.84
2023-03-07T04:17:18.240Z,962.82
2023-03-07T04:18:18.149Z,962.80
2023-03-07T04:19:18.086Z,962.79
2023-03-07T04:20:17.983Z,962.78
2023-03-07T04:21:17.897Z,962.76
2023-03-07T04:22:17.808Z,962.78
2023-03-07T04:23:17.738Z,962.84
2023-03-07T04:24:17.650Z,962.82
2023-03-07T04:25:17.551Z,962.79
2023-03-07T04:26:17.524Z,962.79
2023-03-07T04:27:17.380Z,962.85
2023-03-07T04:28:17.292Z,962.81
2023-03-07T04:29:17.209Z,962.87
2023-03-07T04:30:17.125Z,962.86
2023-03-07T04:31:17.102Z,962.85
2023-03-07T04:32:16.958Z,962.82
2023-03-07T04:33:16.870Z,962.82
2023-03-07T04:34:16.789Z,962.81
2023-03-07T04:35:16.704Z,962.85
2023-03-07T04:36:16.608Z,962.81
2023-03-07T04:37:16.523Z,962.80
2023-03-07T04:38:16.447Z,962.85
2023-03-07T04:39:16.362Z,962.86
2023-03-07T04:40:16.267Z,962.86
2023-03-07T04:41:16.194Z,962.80
2023-03-07T04:42:16.098Z,962.86
2023-03-07T04:43:16.024Z,962.77
2023-03-07T04:44:15.936Z,962.79
2023-03-07T04:45:15.848Z,962.77
2023-03-07T04:46:15.792Z,962.77
2023-03-07T04:47:15.667Z,962.74
2023-03-07T04:48:15.580Z,962.78
2023-03-07T04:49:15.500Z,962.78
2023-03-07T04:50:15.414Z,962.76
2023-03-07T04:51:15.337Z,962.80
2023-03-07T04:52:15.249Z,962.74
2023-03-07T04:53:15.153Z,962.73
2023-03-07T04:54:15.072Z,962.73
2023-03-07T04:55:14.993Z,962.74
2023-03-07T04:56:14.897Z,962.70
2023-03-07T04:57:14.812Z,962.74
2023-03-07T04:58:14.729Z,962.72
2023-03-07T04:59:14.647Z,962.71
2023-03-07T05:00:14.557Z,962.70
2023-03-07T05:01:14.534Z,962.71
2023-03-07T05:02:14.388Z,962.71
2023-03-07T05:03:14.301Z,962.72
2023-03-07T05:04:14.245Z,962.69
2023-03-07T05:05:14.126Z,962.68
2023-03-07T05:06:14.037Z,962.65
2023-03-07T05:07:13.954Z,962.70
2023-03-07T05:08:13.870Z,962.66
2023-03-07T05:09:13.786Z,962.71
2023-03-07T05:10:13.738Z,962.66
2023-03-07T05:11:13.617Z,962.64
2023-03-07T05:12:13.533Z,962.70
2023-03-07T05:13:13.444Z,962.64
2023-03-07T05:14:13.357Z,962.65
2023-03-07T05:15:13.273Z,962.64
2023-03-07T05:16:13.222Z,962.65
2023-03-07T05:17:13.099Z,962.62
2023-03-07T05:18:13.010Z,962.65
2023-03-07T05:19:12.929Z,962.70
2023-03-07T05:20:12.838Z,962.68
2023-03-07T05:21:12.756Z,962.66
2023-03-07T05:22:12.666Z,962.67
2023-03-07T05:23:12.587Z,962.67
2023-03-07T05:24:12.508Z,962.68
2023-03-07T05:25:12.417Z,962.69
2023-03-07T05:26:12.325Z,962.69
2023-03-07T05:27:12.239Z,962.69
2023-03-07T05:28:12.158Z,962.69
2023-03-07T05:29:12.067Z,962.61
2023-03-07T05:30:11.985Z,962.64
2023-03-07T05:31:11.926Z,962.60
2023-03-07T05:32:11.861Z,962.60
2023-03-07T05:33:11.735Z,962.60
2023-03-07T05:34:11.638Z,962.59
2023-03-07T05:35:11.552Z,962.62
2023-03-07T05:36:11.465Z,962.63
2023-03-07T05:37:11.381Z,962.63
2023-03-07T05:38:11.295Z,962.61
2023-03-07T05:39:11.222Z,962.63
2023-03-07T05:40:11.173Z,962.61
2023-03-07T05:41:11.043Z,962.65
2023-03-07T05:42:10.956Z,962.57
2023-03-07T05:43:10.869Z,962.58
2023-03-07T05:44:10.785Z,962.58
2023-03-07T05:45:10.693Z,962.57
2023-03-07T05:46:10.634Z,962.59
2023-03-07T05:47:10.525Z,962.63
2023-03-07T05:48:10.438Z,962.59
2023-03-07T05:49:10.356Z,962.58
2023-03-07T05:50:10.273Z,962.59
2023-03-07T05:51:10.184Z,962.58
2023-03-07T05:52:10.095Z,962.59
2023-03-07T05:53:10.011Z,962.56
2023-03-07T05:54:09.925Z,962.53
2023-03-07T05:55:09.847Z,962.57
2023-03-07T05:56:09.754Z,962.51
2023-03-07T05:57:09.672Z,962.49
2023-03-07T05:58:09.584Z,962.52
2023-03-07T05:59:09.498Z,962.55
2023-03-07T06:00:09.407Z,962.51
2023-03-07T06:01:09.325Z,962.45
2023-03-07T06:02:09.250Z,962.46
2023-03-07T06:03:09.154Z,962.48
2023-03-07T06:04:09.138Z,962.50
2023-03-07T06:05:08.982Z,962.57
2023-03-07T06:06:08.894Z,962.51
2023-03-07T06:07:08.813Z,962.50
2023-03-07T06:08:08.726Z,962.52
2023-03-07T06:09:08.646Z,962.51
2023-03-07T06:10:08.557Z,962.54
2023-03-07T06:11:08.470Z,962.49
2023-03-07T06:12:08.379Z,962.50
2023-03-07T06:13:08.292Z,962.52
2023-03-07T06:14:08.209Z,962.51
2023-03-07T06:15:08.122Z,962.47
2023-03-07T06:16:08.113Z,962.50
2023-03-07T06:17:07.952Z,962.47
2023-03-07T06:18:07.872Z,962.48
2023-03-07T06:19:07.785Z,962.46
2023-03-07T06:20:07.699Z,962.51
2023-03-07T06:21:07.612Z,962.52
2023-03-07T06:22:07.524Z,962.48
2023-03-07T06:23:07.444Z,962.49
2023-03-07T06:24:07.376Z,962.51
2023-03-07T06:25:07.273Z,962.63
2023-03-07T06:26:07.197Z,962.56
2023-03-07T06:27:07.094Z,962.57
2023-03-07T06:28:07.014Z,962.58
2023-03-07T06:29:06.922Z,962.58
2023-03-07T06:30:06.839Z,962.54
2023-03-07T06:31:06.787Z,962.57
2023-03-07T06:32:06.748Z,962.56
2023-03-07T06:33:06.581Z,962.56
2023-03-07T06:34:06.503Z,962.53
2023-03-07T06:35:06.433Z,962.53
2023-03-07T06:36:06.333Z,962.54
2023-03-07T06:37:06.238Z,962.51
2023-03-07T06:38:06.158Z,962.50
2023-03-07T06:39:06.067Z,962.53
2023-03-07T06:40:05.988Z,962.56
2023-03-07T06:41:05.898Z,962.55
2023-03-07T06:42:05.811Z,962.57
2023-03-07T06:43:05.726Z,962.53
2023-03-07T06:44:05.644Z,962.55
2023-03-07T06:45:05.564Z,962.52
2023-03-07T06:46:05.496Z,962.50
2023-03-07T06:47:05.380Z,962.49
2023-03-07T06:48:05.298Z,962.49
2023-03-07T06:49:05.211Z,962.53
2023-03-07T06:50:05.128Z,962.55
2023-03-07T06:51:05.039Z,962.47
2023-03-07T06:52:04.958Z,962.50
2023-03-07T06:53:04.867Z,962.49
2023-03-07T06:54:04.786Z,962.51
2023-03-07T06:55:04.696Z,962.51
2023-03-07T06:56:04.621Z,962.50
2023-03-07T06:57:04.525Z,962.55
2023-03-07T06:58:04.441Z,962.55
2023-03-07T06:59:04.355Z,962.53
2023-03-07T07:00:04.269Z,962.50
2023-03-07T07:01:04.186Z,962.48
2023-03-07T07:02:04.218Z,962.49
2023-03-07T07:03:04.145Z,962.45
2023-03-07T07:04:03.927Z,962.48
2023-03-07T07:05:03.842Z,962.44
2023-03-07T07:06:03.775Z,962.43
2023-03-07T07:07:03.669Z,962.47
2023-03-07T07:08:03.587Z,962.49
2023-03-07T07:09:03.498Z,962.49
2023-03-07T07:10:03.415Z,962.44
2023-03-07T07:11:03.333Z,962.38
2023-03-07T07:12:03.253Z,962.40
2023-03-07T07:13:03.160Z,962.37
2023-03-07T07:14:03.079Z,962.39
2023-03-07T07:15:02.999Z,962.30
2023-03-07T07:16:02.898Z,962.40
2023-03-07T07:17:02.815Z,962.35
2023-03-07T07:18:02.736Z,962.38
2023-03-07T07:19:02.643Z,962.34
2023-03-07T07:20:02.557Z,962.42
2023-03-07T07:21:02.483Z,962.44
2023-03-07T07:22:02.397Z,962.50
2023-03-07T07:23:02.303Z,962.44
2023-03-07T07:24:02.232Z,962.43
2023-03-07T07:25:02.139Z,962.49
2023-03-07T07:26:02.048Z,962.48
2023-03-07T07:27:01.957Z,962.44
2023-03-07T07:28:01.879Z,962.50
2023-03-07T07:29:01.789Z,962.46
2023-03-07T07:30:01.740Z,962.43
2023-03-07T07:31:01.622Z,962.41
2023-03-07T07:32:01.690Z,962.44
2023-03-07T07:33:01.564Z,962.41
2023-03-07T07:34:01.378Z,962.46
2023-03-07T07:35:01.279Z,962.45
2023-03-07T07:36:01.204Z,962.46
2023-03-07T07:37:01.111Z,962.45
2023-03-07T07:38:01.026Z,962.46
2023-03-07T07:39:00.939Z,962.46
2023-03-07T07:40:00.853Z,962.40
2023-03-07T07:41:00.764Z,962.46
2023-03-07T07:42:00.683Z,962.50
2023-03-07T07:43:00.601Z,962.45
2023-03-07T07:44:00.511Z,962.41
2023-03-07T07:45:00.434Z,962.50
2023-03-07T07:46:00.404Z,962.45
2023-03-07T07:47:00.269Z,962.46
2023-03-07T07:48:00.169Z,962.51
2023-03-07T07:49:00.090Z,962.44
2023-03-07T07:50:00.010Z,962.42
2023-03-07T07:50:59.914Z,962.47
2023-03-07T07:51:59.828Z,962.52
2023-03-07T07:52:59.740Z,962.47
2023-03-07T07:53:59.673Z,962.49
2023-03-07T07:54:59.577Z,962.54
2023-03-07T07:55:59.490Z,962.57
2023-03-07T07:56:59.405Z,962.54
2023-03-07T07:57:59.326Z,962.50
2023-03-07T07:58:59.233Z,962.50
2023-03-07T07:59:59.149Z,962.54
2023-03-07T08:00:59.062Z,962.55
2023-03-07T08:01:58.993Z,962.55
2023-03-07T08:02:58.893Z,962.51
2023-03-07T08:03:58.807Z,962.47
2023-03-07T08:04:58.717Z,962.51
2023-03-07T08:05:58.644Z,962.49
2023-03-07T08:06:58.553Z,962.50
2023-03-07T08:07:58.469Z,962.47
2023-03-07T08:08:58.379Z,962.45
2023-03-07T08:09:58.306Z,962.47
2023-03-07T08:10:58.211Z,962.48
2023-03-07T08:11:58.132Z,962.44
2023-03-07T08:12:58.039Z,962.48
2023-03-07T08:13:57.957Z,962.48
2023-03-07T08:14:57.870Z,962.42
2023-03-07T08:15:57.847Z,962.48
2023-03-07T08:16:57.699Z,962.49
2023-03-07T08:17:57.619Z,962.43
2023-03-07T08:18:57.530Z,962.45
2023-03-07T08:19:57.575Z,962.42
2023-03-07T08:20:57.358Z,962.54
2023-03-07T08:21:57.275Z,962.46
2023-03-07T08:22:57.192Z,962.47
2023-03-07T08:23:57.119Z,962.44
2023-03-07T08:24:57.028Z,962.50
2023-03-07T08:25:56.964Z,962.48
2023-03-07T08:26:56.863Z,962.48
2023-03-07T08:27:56.764Z,962.48
2023-03-07T08:28:56.681Z,962.51
2023-03-07T08:29:56.600Z,962.52
2023-03-07T08:30:56.543Z,962.47
2023-03-07T08:31:56.425Z,962.46
2023-03-07T08:32:56.357Z,962.45
2023-03-07T08:33:56.256Z,962.38
2023-03-07T08:34:56.169Z,962.42
2023-03-07T08:35:56.112Z,962.43
2023-03-07T08:36:55.999Z,962.36
2023-03-07T08:37:55.925Z,962.42
2023-03-07T08:38:55.831Z,962.36
2023-03-07T08:39:55.754Z,962.43
2023-03-07T08:40:55.664Z,962.42
2023-03-07T08:41:55.577Z,962.39
2023-03-07T08:42:55.533Z,962.42
2023-03-07T08:43:55.404Z,962.38
2023-03-07T08:44:55.315Z,962.38
2023-03-07T08:45:55.252Z,962.38
2023-03-07T08:46:55.145Z,962.36
2023-03-07T08:47:55.084Z,962.37
2023-03-07T08:48:54.980Z,962.41
2023-03-07T08:49:54.904Z,962.34
2023-03-07T08:50:55.325Z,962.38
2023-03-07T08:51:54.722Z,962.37
2023-03-07T08:52:54.637Z,962.33
2023-03-07T08:53:54.550Z,962.35
2023-03-07T08:54:54.464Z,962.31
2023-03-07T08:55:54.381Z,962.36
2023-03-07T08:56:54.304Z,962.34
2023-03-07T08:57:54.258Z,962.30
2023-03-07T08:58:54.137Z,962.32
2023-03-07T08:59:54.049Z,962.33
2023-03-07T09:00:53.955Z,962.38
2023-03-07T09:01:53.954Z,962.31
2023-03-07T09:02:53.783Z,962.27
2023-03-07T09:03:53.721Z,962.31
2023-03-07T09:04:53.687Z,962.30
2023-03-07T09:05:53.546Z,962.28
2023-03-07T09:06:53.538Z,962.27
2023-03-07T09:07:53.362Z,962.30
2023-03-07T09:08:53.274Z,962.26
2023-03-07T09:09:53.200Z,962.25
2023-03-07T09:10:53.111Z,962.22
2023-03-07T09:11:53.023Z,962.26
2023-03-07T09:12:52.934Z,962.25
2023-03-07T09:13:53.414Z,962.28
2023-03-07T09:14:52.789Z,962.25
2023-03-07T09:15:52.697Z,962.20
2023-03-07T09:16:52.601Z,962.19
2023-03-07T09:17:52.512Z,962.21
2023-03-07T09:18:52.429Z,962.17
2023-03-07T09:19:52.344Z,962.20
2023-03-07T09:20:52.257Z,962.18
2023-03-07T09:21:52.173Z,962.14
2023-03-07T09:22:52.088Z,962.14
2023-03-07T09:23:52.006Z,962.14
2023-03-07T09:24:51.929Z,962.13
2023-03-07T09:25:51.845Z,962.11
2023-03-07T09:26:51.754Z,962.05
2023-03-07T09:27:52.081Z,962.06
2023-03-07T09:28:51.585Z,962.04
2023-03-07T09:29:51.500Z,962.03
2023-03-07T09:30:51.429Z,962.02
2023-03-07T09:31:51.429Z,962.02
2023-03-07T09:32:51.244Z,962.04
2023-03-07T09:33:51.162Z,961.95
2023-03-07T09:34:51.077Z,962.01
2023-03-07T09:35:51.015Z,961.93
2023-03-07T09:36:50.905Z,961.91
2023-03-07T09:37:50.827Z,961.92
2023-03-07T09:38:50.738Z,961.94
2023-03-07T09:39:50.652Z,961.87
2023-03-07T09:40:50.568Z,961.84
2023-03-07T09:41:50.506Z,961.82
2023-03-07T09:42:50.400Z,961.82
2023-03-07T09:43:50.315Z,961.83
2023-03-07T09:44:50.270Z,961.83
2023-03-07T09:45:50.204Z,961.82
2023-03-07T09:46:50.070Z,961.84
2023-03-07T09:47:49.982Z,961.76
2023-03-07T09:48:49.894Z,961.76
2023-03-07T09:49:49.828Z,961.75
2023-03-07T09:50:49.733Z,961.77
2023-03-07T09:51:49.649Z,961.78
2023-03-07T09:52:49.563Z,961.74
2023-03-07T09:53:49.476Z,961.69
2023-03-07T09:54:49.394Z,961.70
2023-03-07T09:55:49.309Z,961.71
2023-03-07T09:56:49.221Z,961.70
2023-03-07T09:57:49.139Z,961.71
2023-03-07T09:58:49.056Z,961.61
2023-03-07T09:59:48.979Z,961.65
2023-03-07T10:00:48.886Z,961.72
2023-03-07T10:01:48.813Z,961.57
2023-03-07T10:02:48.723Z,961.58
2023-03-07T10:03:48.762Z,961.63
2023-03-07T10:04:48.559Z,961.66
2023-03-07T10:05:48.471Z,961.57
2023-03-07T10:06:48.384Z,961.57
2023-03-07T10:07:48.303Z,961.57
2023-03-07T10:08:48.217Z,961.66
2023-03-07T10:09:48.138Z,961.64
2023-03-07T10:10:48.049Z,961.66
2023-03-07T10:11:48.001Z,961.58
2023-03-07T10:12:47.880Z,961.47
2023-03-07T10:13:47.798Z,961.49
2023-03-07T10:14:47.714Z,961.43
2023-03-07T10:15:47.678Z,961.52
2023-03-07T10:16:47.592Z,961.44
2023-03-07T10:17:47.471Z,961.46
2023-03-07T10:18:47.382Z,961.41
2023-03-07T10:19:47.298Z,961.65
2023-03-07T10:20:47.213Z,961.45
2023-03-07T10:21:47.135Z,961.47
2023-03-07T10:22:47.059Z,961.46
2023-03-07T10:23:46.967Z,961.47
2023-03-07T10:24:46.882Z,961.38
2023-03-07T10:25:46.802Z,961.34
2023-03-07T10:26:46.714Z,961.43
2023-03-07T10:27:46.638Z,961.41
2023-03-07T10:28:46.556Z,961.41
2023-03-07T10:29:46.463Z,961.43
2023-03-07T10:30:46.383Z,961.45
2023-03-07T10:31:46.338Z,961.49
2023-03-07T10:32:46.279Z,961.44
2023-03-07T10:33:46.205Z,961.36
2023-03-07T10:34:46.069Z,961.51
2023-03-07T10:35:45.973Z,961.51
2023-03-07T10:36:45.886Z,961.40
2023-03-07T10:37:45.801Z,961.47
2023-03-07T10:38:45.717Z,961.40
2023-03-07T10:39:45.631Z,961.32
2023-03-07T10:40:45.552Z,961.33
2023-03-07T10:41:45.468Z,961.33
2023-03-07T10:42:45.390Z,961.31
2023-03-07T10:43:45.306Z,961.35
2023-03-07T10:44:45.241Z,961.34
2023-03-07T10:45:45.153Z,961.37
2023-03-07T10:46:55.339Z,961.29
2023-03-07T10:47:44.971Z,961.39
2023-03-07T10:48:44.887Z,961.30
2023-03-07T10:49:44.811Z,961.30
2023-03-07T10:50:44.724Z,961.26
2023-03-07T10:51:44.642Z,961.30
2023-03-07T10:52:44.577Z,961.30
2023-03-07T10:53:44.473Z,961.32
2023-03-07T10:54:44.396Z,961.30
2023-03-07T10:55:44.311Z,961.33
2023-03-07T10:56:44.228Z,961.20
2023-03-07T10:57:44.140Z,961.20
2023-03-07T10:58:44.070Z,961.15
2023-03-07T10:59:43.997Z,961.18
2023-03-07T11:00:43.895Z,961.12
2023-03-07T11:01:43.852Z,961.10
2023-03-07T11:02:43.730Z,961.11
2023-03-07T11:03:52.864Z,961.09
2023-03-07T11:04:43.629Z,961.14
2023-03-07T11:05:43.482Z,961.06
2023-03-07T11:06:43.397Z,961.06
2023-03-07T11:07:43.314Z,961.03
2023-03-07T11:08:43.231Z,961.03
2023-03-07T11:09:43.147Z,961.00
2023-03-07T11:10:43.065Z,961.03
2023-03-07T11:11:42.981Z,961.01
2023-03-07T11:12:42.906Z,960.98
2023-03-07T11:13:42.815Z,961.03
2023-03-07T11:14:42.735Z,961.03
2023-03-07T11:15:42.740Z,961.00
2023-03-07T11:16:42.752Z,961.05
2023-03-07T11:17:42.496Z,961.02
2023-03-07T11:18:42.412Z,960.98
2023-03-07T11:19:42.319Z,960.98
2023-03-07T11:20:42.239Z,960.95
2023-03-07T11:21:42.154Z,960.91
2023-03-07T11:22:42.070Z,960.94
2023-03-07T11:23:42.028Z,960.85
2023-03-07T11:24:41.906Z,960.86
2023-03-07T11:25:41.823Z,960.87
2023-03-07T11:26:41.739Z,960.81
2023-03-07T11:27:41.658Z,960.84
2023-03-07T11:28:41.575Z,960.76
2023-03-07T11:29:41.486Z,960.78
2023-03-07T11:30:41.417Z,960.77
2023-03-07T11:31:41.332Z,960.76
2023-03-07T11:32:41.299Z,960.73
2023-03-07T11:33:53.019Z,960.78
2023-03-07T11:34:41.075Z,960.73
2023-03-07T11:35:40.996Z,960.73
2023-03-07T11:36:40.969Z,960.75
2023-03-07T11:37:40.826Z,960.75
2023-03-07T11:38:40.744Z,960.70
2023-03-07T11:39:40.657Z,960.73
2023-03-07T11:40:40.590Z,960.66
2023-03-07T11:41:40.498Z,960.70
2023-03-07T11:42:40.410Z,960.69
2023-03-07T11:43:40.325Z,960.66
2023-03-07T11:44:40.251Z,960.61
2023-03-07T11:45:40.160Z,960.63
2023-03-07T11:46:40.143Z,960.64
2023-03-07T11:47:40.008Z,960.67
2023-03-07T11:48:39.912Z,960.66
2023-03-07T11:49:39.831Z,960.58
2023-03-07T11:50:39.746Z,960.57
2023-03-07T11:51:39.663Z,960.56
2023-03-07T11:52:39.600Z,960.51
2023-03-07T11:53:39.528Z,960.59
2023-03-07T11:54:39.429Z,960.53
2023-03-07T11:55:39.343Z,960.53
2023-03-07T11:56:39.253Z,960.57
2023-03-07T11:57:39.171Z,960.52
2023-03-07T11:58:39.084Z,960.50
2023-03-07T11:59:39.001Z,960.44
2023-03-07T12:00:38.925Z,960.45
2023-03-07T12:01:38.835Z,960.47
2023-03-07T12:02:38.799Z,960.47
2023-03-07T12:03:38.679Z,960.48
2023-03-07T12:04:38.588Z,960.49
2023-03-07T12:05:38.589Z,960.43
2023-03-07T12:06:38.421Z,960.44
2023-03-07T12:07:38.338Z,960.42
2023-03-07T12:08:38.254Z,960.47
2023-03-07T12:09:38.178Z,960.42
2023-03-07T12:10:38.091Z,960.47
2023-03-07T12:11:38.008Z,960.47
2023-03-07T12:12:37.934Z,960.45
2023-03-07T12:13:37.838Z,960.47
2023-03-07T12:14:37.758Z,960.47
2023-03-07T12:15:37.678Z,960.42
2023-03-07T12:16:37.691Z,960.48
2023-03-07T12:17:37.514Z,960.49
2023-03-07T12:18:37.446Z,960.50
2023-03-07T12:19:37.342Z,960.44
2023-03-07T12:20:37.258Z,960.43
2023-03-07T12:21:37.177Z,960.43
2023-03-07T12:22:37.096Z,960.48
2023-03-07T12:23:37.018Z,960.46
2023-03-07T12:24:36.925Z,960.39
2023-03-07T12:25:36.845Z,960.52
2023-03-07T12:26:36.780Z,960.46
2023-03-07T12:27:36.677Z,960.47